sensor_id;sensor_type;location;lat;lon;timestamp;pressure;altitude;pressure_sealevel;temperature;humidity
21742;BME280;11033;47.490;11.116;2024-03-02T00:01:22;92036.34;;;6.21;80.76
21742;BME280;11033;47.490;11.116;2024-03-02T00:03:47;92031.19;;;6.14;82.35
21742;BME280;11033;47.490;11.116;2024-03-02T00:06:13;92019.56;;;6.12;81.47
21742;BME280;11033;47.490;11.116;2024-03-02T00:08:38;92014.34;;;6.08;82.34
21742;BME280;11033;47.490;11.116;2024-03-02T00:11:04;92012.13;;;6.07;81.81
21742;BME280;11033;47.490;11.116;2024-03-02T00:13:29;92016.66;;;6.06;81.21
21742;BME280;11033;47.490;11.116;2024-03-02T00:15:56;92011.03;;;6.04;82.21
21742;BME280;11033;47.490;11.116;2024-03-02T00:18:32;92015.16;;;6.05;81.66
21742;BME280;11033;47.490;11.116;2024-03-02T00:20:58;92007.31;;;6.02;82.45
21742;BME280;11033;47.490;11.116;2024-03-02T00:23:27;92004.44;;;5.93;83.98
21742;BME280;11033;47.490;11.116;2024-03-02T00:25:55;92008.13;;;5.99;82.33
21742;BME280;11033;47.490;11.116;2024-03-02T00:28:29;92006.75;;;5.91;82.94
21742;BME280;11033;47.490;11.116;2024-03-02T00:31:05;91997.34;;;5.90;82.71
21742;BME280;11033;47.490;11.116;2024-03-02T00:33:33;91992.50;;;5.88;82.80
21742;BME280;11033;47.490;11.116;2024-03-02T00:35:59;91992.16;;;5.86;83.32
21742;BME280;11033;47.490;11.116;2024-03-02T00:38:26;91988.78;;;5.82;83.61
21742;BME280;11033;47.490;11.116;2024-03-02T00:40:52;91986.91;;;5.82;82.91
21742;BME280;11033;47.490;11.116;2024-03-02T00:45:49;91991.97;;;5.70;84.81
21742;BME280;11033;47.490;11.116;2024-03-02T00:48:15;91976.88;;;5.74;83.83
21742;BME280;11033;47.490;11.116;2024-03-02T00:50:41;91988.03;;;5.81;82.93
21742;BME280;11033;47.490;11.116;2024-03-02T00:53:10;91983.53;;;5.82;83.77
21742;BME280;11033;47.490;11.116;2024-03-02T00:55:36;91988.84;;;5.78;83.14
21742;BME280;11033;47.490;11.116;2024-03-02T00:58:02;91983.00;;;5.67;84.18
21742;BME280;11033;47.490;11.116;2024-03-02T01:00:28;91985.94;;;5.73;83.57
21742;BME280;11033;47.490;11.116;2024-03-02T01:02:53;91987.34;;;5.77;83.25
21742;BME280;11033;47.490;11.116;2024-03-02T01:05:18;91988.03;;;5.81;82.29
21742;BME280;11033;47.490;11.116;2024-03-02T01:07:43;91985.47;;;5.78;82.89
21742;BME280;11033;47.490;11.116;2024-03-02T01:10:09;91990.41;;;5.76;83.76
21742;BME280;11033;47.490;11.116;2024-03-02T01:12:35;91974.63;;;5.76;83.38
21742;BME280;11033;47.490;11.116;2024-03-02T01:15:00;91976.16;;;5.73;83.13
21742;BME280;11033;47.490;11.116;2024-03-02T01:17:25;91978.31;;;5.78;82.10
21742;BME280;11033;47.490;11.116;2024-03-02T01:19:50;91973.81;;;5.79;81.95
21742;BME280;11033;47.490;11.116;2024-03-02T01:22:16;91977.63;;;5.74;82.52
21742;BME280;11033;47.490;11.116;2024-03-02T01:24:42;91974.25;;;5.74;83.15
21742;BME280;11033;47.490;11.116;2024-03-02T01:27:07;91962.25;;;5.73;82.64
21742;BME280;11033;47.490;11.116;2024-03-02T01:29:32;91964.09;;;5.76;82.69
21742;BME280;11033;47.490;11.116;2024-03-02T01:31:58;91964.47;;;5.74;82.83
21742;BME280;11033;47.490;11.116;2024-03-02T01:34:23;91961.22;;;5.67;84.23
21742;BME280;11033;47.490;11.116;2024-03-02T01:36:48;91963.09;;;5.66;84.91
21742;BME280;11033;47.490;11.116;2024-03-02T01:39:13;91959.00;;;5.65;84.32
21742;BME280;11033;47.490;11.116;2024-03-02T01:41:39;91958.25;;;5.65;84.96
21742;BME280;11033;47.490;11.116;2024-03-02T01:44:04;91957.69;;;5.54;85.77
21742;BME280;11033;47.490;11.116;2024-03-02T01:46:29;91961.75;;;5.58;86.52
21742;BME280;11033;47.490;11.116;2024-03-02T01:48:55;91958.31;;;5.61;85.85
21742;BME280;11033;47.490;11.116;2024-03-02T01:51:20;91951.91;;;5.62;86.31
21742;BME280;11033;47.490;11.116;2024-03-02T01:53:46;91954.63;;;5.55;86.39
21742;BME280;11033;47.490;11.116;2024-03-02T01:56:11;91960.13;;;5.64;85.54
21742;BME280;11033;47.490;11.116;2024-03-02T01:58:37;91951.16;;;5.62;85.49
21742;BME280;11033;47.490;11.116;2024-03-02T02:01:02;91953.75;;;5.65;85.11
21742;BME280;11033;47.490;11.116;2024-03-02T02:03:28;91953.75;;;5.65;85.25
21742;BME280;11033;47.490;11.116;2024-03-02T02:05:53;91956.69;;;5.67;84.34
21742;BME280;11033;47.490;11.116;2024-03-02T02:08:18;91959.06;;;5.62;86.31
21742;BME280;11033;47.490;11.116;2024-03-02T02:10:43;91949.22;;;5.66;85.80
21742;BME280;11033;47.490;11.116;2024-03-02T02:13:09;91947.31;;;5.66;85.19
21742;BME280;11033;47.490;11.116;2024-03-02T02:15:34;91948.81;;;5.67;84.44
21742;BME280;11033;47.490;11.116;2024-03-02T02:18:01;91948.41;;;5.69;85.22
21742;BME280;11033;47.490;11.116;2024-03-02T02:20:27;91947.69;;;5.68;84.49
21742;BME280;11033;47.490;11.116;2024-03-02T02:23:03;91944.69;;;5.66;85.38
21742;BME280;11033;47.490;11.116;2024-03-02T02:25:29;91942.00;;;5.70;84.40
21742;BME280;11033;47.490;11.116;2024-03-02T02:27:55;91941.22;;;5.50;86.55
21742;BME280;11033;47.490;11.116;2024-03-02T02:30:29;91936.53;;;5.61;86.51
21742;BME280;11033;47.490;11.116;2024-03-02T02:32:54;91939.41;;;5.66;85.92
21742;BME280;11033;47.490;11.116;2024-03-02T02:35:20;91940.09;;;5.70;84.34
21742;BME280;11033;47.490;11.116;2024-03-02T02:37:46;91933.38;;;5.69;85.21
21742;BME280;11033;47.490;11.116;2024-03-02T02:40:12;91929.59;;;5.70;84.94
21742;BME280;11033;47.490;11.116;2024-03-02T02:42:38;91936.72;;;5.70;84.37
21742;BME280;11033;47.490;11.116;2024-03-02T02:45:04;91926.50;;;5.75;84.32
21742;BME280;11033;47.490;11.116;2024-03-02T02:47:29;91937.84;;;5.72;84.31
21742;BME280;11033;47.490;11.116;2024-03-02T02:49:54;91922.06;;;5.72;85.21
21742;BME280;11033;47.490;11.116;2024-03-02T02:52:20;91922.78;;;5.73;84.96
21742;BME280;11033;47.490;11.116;2024-03-02T02:54:46;91920.50;;;5.75;84.26
21742;BME280;11033;47.490;11.116;2024-03-02T02:57:11;91918.28;;;5.73;84.44
21742;BME280;11033;47.490;11.116;2024-03-02T02:59:37;91930.34;;;5.71;85.63
21742;BME280;11033;47.490;11.116;2024-03-02T03:02:02;91924.25;;;5.74;84.87
21742;BME280;11033;47.490;11.116;2024-03-02T03:04:27;91931.44;;;5.73;85.13
21742;BME280;11033;47.490;11.116;2024-03-02T03:06:53;91932.22;;;5.70;84.58
21742;BME280;11033;47.490;11.116;2024-03-02T03:09:18;91933.03;;;5.67;84.56
21742;BME280;11033;47.490;11.116;2024-03-02T03:11:43;91935.53;;;5.74;84.25
21742;BME280;11033;47.490;11.116;2024-03-02T03:14:09;91934.72;;;5.77;83.37
21742;BME280;11033;47.490;11.116;2024-03-02T03:16:34;91937.66;;;5.83;84.44
21742;BME280;11033;47.490;11.116;2024-03-02T03:18:59;91932.06;;;5.81;83.18
21742;BME280;11033;47.490;11.116;2024-03-02T03:21:25;91936.91;;;5.82;82.87
21742;BME280;11033;47.490;11.116;2024-03-02T03:23:50;91934.06;;;5.73;85.02
21742;BME280;11033;47.490;11.116;2024-03-02T03:26:15;91940.81;;;5.74;85.61
21742;BME280;11033;47.490;11.116;2024-03-02T03:28:40;91933.19;;;5.80;84.64
21742;BME280;11033;47.490;11.116;2024-03-02T03:31:06;91939.53;;;5.82;83.99
21742;BME280;11033;47.490;11.116;2024-03-02T03:33:32;91946.69;;;5.82;84.06
21742;BME280;11033;47.490;11.116;2024-03-02T03:35:57;91946.75;;;5.78;84.12
21742;BME280;11033;47.490;11.116;2024-03-02T03:38:22;91945.94;;;5.81;84.25
21742;BME280;11033;47.490;11.116;2024-03-02T03:40:47;91956.88;;;5.80;84.60
21742;BME280;11033;47.490;11.116;2024-03-02T03:43:13;91954.66;;;5.78;84.82
21742;BME280;11033;47.490;11.116;2024-03-02T03:45:38;91956.53;;;5.78;85.72
21742;BME280;11033;47.490;11.116;2024-03-02T03:48:03;91957.28;;;5.78;85.31
21742;BME280;11033;47.490;11.116;2024-03-02T03:50:29;91948.63;;;5.78;85.38
21742;BME280;11033;47.490;11.116;2024-03-02T03:52:54;91953.44;;;5.83;85.00
21742;BME280;11033;47.490;11.116;2024-03-02T03:55:19;91955.31;;;5.86;84.42
21742;BME280;11033;47.490;11.116;2024-03-02T03:57:44;91953.13;;;5.81;84.16
21742;BME280;11033;47.490;11.116;2024-03-02T04:00:10;91959.78;;;5.85;84.36
21742;BME280;11033;47.490;11.116;2024-03-02T04:02:36;91964.72;;;5.83;83.98
21742;BME280;11033;47.490;11.116;2024-03-02T04:05:01;91966.22;;;5.84;84.17
21742;BME280;11033;47.490;11.116;2024-03-02T04:07:30;91963.22;;;5.82;84.10
21742;BME280;11033;47.490;11.116;2024-03-02T04:09:55;91961.34;;;5.83;85.06
21742;BME280;11033;47.490;11.116;2024-03-02T04:12:21;91971.88;;;5.83;84.19
21742;BME280;11033;47.490;11.116;2024-03-02T04:14:47;91968.47;;;5.86;83.71
21742;BME280;11033;47.490;11.116;2024-03-02T04:17:12;91974.88;;;5.81;85.19
21742;BME280;11033;47.490;11.116;2024-03-02T04:19:38;91982.06;;;5.81;85.25
21742;BME280;11033;47.490;11.116;2024-03-02T04:22:03;91987.28;;;5.84;85.34
21742;BME280;11033;47.490;11.116;2024-03-02T04:24:29;91987.97;;;5.89;84.58
21742;BME280;11033;47.490;11.116;2024-03-02T04:26:55;91984.59;;;5.88;83.85
21742;BME280;11033;47.490;11.116;2024-03-02T04:29:20;91994.00;;;5.85;84.43
21742;BME280;11033;47.490;11.116;2024-03-02T04:31:45;91989.13;;;5.88;84.29
21742;BME280;11033;47.490;11.116;2024-03-02T04:34:11;91996.31;;;5.83;85.32
21742;BME280;11033;47.490;11.116;2024-03-02T04:36:36;91994.78;;;5.86;85.23
21742;BME280;11033;47.490;11.116;2024-03-02T04:39:01;91999.38;;;5.78;85.34
21742;BME280;11033;47.490;11.116;2024-03-02T04:41:27;91997.78;;;5.84;84.56
21742;BME280;11033;47.490;11.116;2024-03-02T04:43:52;92003.03;;;5.88;84.58
21742;BME280;11033;47.490;11.116;2024-03-02T04:46:18;92007.13;;;5.89;84.48
21742;BME280;11033;47.490;11.116;2024-03-02T04:48:43;92012.81;;;5.88;83.67
21742;BME280;11033;47.490;11.116;2024-03-02T04:51:08;92016.53;;;5.90;83.42
21742;BME280;11033;47.490;11.116;2024-03-02T04:53:34;92019.63;;;5.81;85.85
21742;BME280;11033;47.490;11.116;2024-03-02T04:55:59;92020.38;;;5.82;84.66
21742;BME280;11033;47.490;11.116;2024-03-02T04:58:43;92016.03;;;5.72;85.70
21742;BME280;11033;47.490;11.116;2024-03-02T05:01:08;92024.25;;;5.74;85.48
21742;BME280;11033;47.490;11.116;2024-03-02T05:03:33;92027.19;;;5.79;85.03
21742;BME280;11033;47.490;11.116;2024-03-02T05:05:59;92027.94;;;5.80;84.41
21742;BME280;11033;47.490;11.116;2024-03-02T05:08:25;92032.41;;;5.83;84.63
21742;BME280;11033;47.490;11.116;2024-03-02T05:10:50;92036.59;;;5.80;84.25
21742;BME280;11033;47.490;11.116;2024-03-02T05:13:15;92027.63;;;5.74;84.74
21742;BME280;11033;47.490;11.116;2024-03-02T05:15:42;92030.63;;;5.76;84.64
21742;BME280;11033;47.490;11.116;2024-03-02T05:18:08;92039.97;;;5.81;84.39
21742;BME280;11033;47.490;11.116;2024-03-02T05:20:34;92030.16;;;5.81;84.13
21742;BME280;11033;47.490;11.116;2024-03-02T05:22:59;92029.94;;;5.72;84.95
21742;BME280;11033;47.490;11.116;2024-03-02T05:25:24;92044.97;;;5.72;84.96
21742;BME280;11033;47.490;11.116;2024-03-02T05:27:50;92030.31;;;5.71;84.60
21742;BME280;11033;47.490;11.116;2024-03-02T05:30:15;92037.81;;;5.72;84.74
21742;BME280;11033;47.490;11.116;2024-03-02T05:32:40;92038.22;;;5.71;84.20
21742;BME280;11033;47.490;11.116;2024-03-02T05:35:06;92034.84;;;5.70;83.28
21742;BME280;11033;47.490;11.116;2024-03-02T05:37:32;92037.28;;;5.58;85.09
21742;BME280;11033;47.490;11.116;2024-03-02T05:39:57;92037.94;;;5.65;84.56
21742;BME280;11033;47.490;11.116;2024-03-02T05:42:22;92046.97;;;5.64;84.04
21742;BME280;11033;47.490;11.116;2024-03-02T05:44:47;92042.44;;;5.65;83.89
21742;BME280;11033;47.490;11.116;2024-03-02T05:47:13;92050.81;;;5.56;84.47
21742;BME280;11033;47.490;11.116;2024-03-02T05:49:38;92046.75;;;5.52;84.23
21742;BME280;11033;47.490;11.116;2024-03-02T05:52:04;92047.50;;;5.52;84.51
21742;BME280;11033;47.490;11.116;2024-03-02T05:54:29;92047.59;;;5.45;84.44
21742;BME280;11033;47.490;11.116;2024-03-02T05:56:55;92052.44;;;5.50;83.93
21742;BME280;11033;47.490;11.116;2024-03-02T05:59:20;92047.06;;;5.57;83.02
21742;BME280;11033;47.490;11.116;2024-03-02T06:01:46;92042.00;;;5.43;84.26
21742;BME280;11033;47.490;11.116;2024-03-02T06:04:12;92047.91;;;5.51;84.68
21742;BME280;11033;47.490;11.116;2024-03-02T06:06:38;92047.50;;;5.52;83.77
21742;BME280;11033;47.490;11.116;2024-03-02T06:09:05;92041.16;;;5.50;84.14
21742;BME280;11033;47.490;11.116;2024-03-02T06:11:33;92051.97;;;5.55;83.78
21742;BME280;11033;47.490;11.116;2024-03-02T06:13:58;92049.03;;;5.50;83.16
21742;BME280;11033;47.490;11.116;2024-03-02T06:16:23;92053.94;;;5.48;84.24
21742;BME280;11033;47.490;11.116;2024-03-02T06:18:49;92051.63;;;5.53;83.87
21742;BME280;11033;47.490;11.116;2024-03-02T06:21:14;92056.09;;;5.56;84.16
21742;BME280;11033;47.490;11.116;2024-03-02T06:23:39;92054.22;;;5.57;83.36
21742;BME280;11033;47.490;11.116;2024-03-02T06:26:05;92058.72;;;5.56;84.19
21742;BME280;11033;47.490;11.116;2024-03-02T06:28:30;92059.47;;;5.57;84.29
21742;BME280;11033;47.490;11.116;2024-03-02T06:30:55;92059.09;;;5.58;84.12
21742;BME280;11033;47.490;11.116;2024-03-02T06:33:21;92059.78;;;5.62;83.99
21742;BME280;11033;47.490;11.116;2024-03-02T06:35:46;92061.31;;;5.60;83.85
21742;BME280;11033;47.490;11.116;2024-03-02T06:38:11;92065.72;;;5.66;84.04
21742;BME280;11033;47.490;11.116;2024-03-02T06:40:37;92057.44;;;5.68;83.58
21742;BME280;11033;47.490;11.116;2024-03-02T06:43:04;92065.81;;;5.59;84.85
21742;BME280;11033;47.490;11.116;2024-03-02T06:45:29;92055.13;;;5.70;82.99
21742;BME280;11033;47.490;11.116;2024-03-02T06:47:55;92054.31;;;5.76;82.78
21742;BME280;11033;47.490;11.116;2024-03-02T06:50:21;92059.63;;;5.73;83.47
21742;BME280;11033;47.490;11.116;2024-03-02T06:52:46;92052.44;;;5.77;84.61
21742;BME280;11033;47.490;11.116;2024-03-02T06:55:12;92052.75;;;5.79;84.55
21742;BME280;11033;47.490;11.116;2024-03-02T06:57:37;92056.47;;;5.81;84.21
21742;BME280;11033;47.490;11.116;2024-03-02T07:00:03;92052.28;;;5.88;83.78
21742;BME280;11033;47.490;11.116;2024-03-02T07:02:30;92054.00;;;5.98;83.30
21742;BME280;11033;47.490;11.116;2024-03-02T07:04:56;92054.38;;;6.00;83.56
21742;BME280;11033;47.490;11.116;2024-03-02T07:07:21;92051.25;;;6.05;83.16
21742;BME280;11033;47.490;11.116;2024-03-02T07:09:47;92048.25;;;6.06;83.09
21742;BME280;11033;47.490;11.116;2024-03-02T07:12:13;92045.94;;;6.08;83.47
21742;BME280;11033;47.490;11.116;2024-03-02T07:14:38;92046.56;;;6.16;82.90
21742;BME280;11033;47.490;11.116;2024-03-02T07:17:32;92053.66;;;6.19;83.64
21742;BME280;11033;47.490;11.116;2024-03-02T07:19:58;92052.94;;;6.18;83.31
21742;BME280;11033;47.490;11.116;2024-03-02T07:22:23;92048.97;;;6.30;82.60
21742;BME280;11033;47.490;11.116;2024-03-02T07:24:49;92049.66;;;6.34;82.71
21742;BME280;11033;47.490;11.116;2024-03-02T07:27:15;92057.16;;;6.36;83.14
21742;BME280;11033;47.490;11.116;2024-03-02T07:29:41;92048.38;;;6.42;83.04
21742;BME280;11033;47.490;11.116;2024-03-02T07:32:07;92056.91;;;6.50;83.23
21742;BME280;11033;47.490;11.116;2024-03-02T07:34:32;92052.06;;;6.48;83.72
21742;BME280;11033;47.490;11.116;2024-03-02T07:36:58;92048.06;;;6.60;83.73
21742;BME280;11033;47.490;11.116;2024-03-02T07:39:23;92048.03;;;6.63;82.84
21742;BME280;11033;47.490;11.116;2024-03-02T07:41:49;92046.78;;;6.68;83.28
21742;BME280;11033;47.490;11.116;2024-03-02T07:44:14;92042.06;;;6.59;83.70
21742;BME280;11033;47.490;11.116;2024-03-02T07:46:41;92046.06;;;6.24;84.65
21742;BME280;11033;47.490;11.116;2024-03-02T07:49:06;92039.09;;;6.57;83.78
21742;BME280;11033;47.490;11.116;2024-03-02T07:51:32;92049.03;;;6.69;82.75
21742;BME280;11033;47.490;11.116;2024-03-02T07:53:57;92047.34;;;6.59;83.29
21742;BME280;11033;47.490;11.116;2024-03-02T07:56:22;92043.53;;;6.60;83.83
21742;BME280;11033;47.490;11.116;2024-03-02T07:58:50;92043.78;;;6.69;83.10
21742;BME280;11033;47.490;11.116;2024-03-02T08:01:16;92042.63;;;6.70;83.85
21742;BME280;11033;47.490;11.116;2024-03-02T08:03:42;92040.06;;;6.87;82.37
21742;BME280;11033;47.490;11.116;2024-03-02T08:06:08;92044.72;;;6.79;83.23
21742;BME280;11033;47.490;11.116;2024-03-02T08:08:33;92042.53;;;6.94;82.08
21742;BME280;11033;47.490;11.116;2024-03-02T08:10:58;92043.16;;;7.01;81.72
21742;BME280;11033;47.490;11.116;2024-03-02T08:13:23;92039.13;;;6.97;82.24
21742;BME280;11033;47.490;11.116;2024-03-02T08:15:49;92038.44;;;6.93;82.87
21742;BME280;11033;47.490;11.116;2024-03-02T08:18:14;92049.38;;;7.11;82.21
21742;BME280;11033;47.490;11.116;2024-03-02T08:20:40;92039.50;;;7.15;82.03
21742;BME280;11033;47.490;11.116;2024-03-02T08:23:05;92049.84;;;7.25;82.30
21742;BME280;11033;47.490;11.116;2024-03-02T08:25:31;92043.34;;;7.30;82.92
21742;BME280;11033;47.490;11.116;2024-03-02T08:27:56;92048.13;;;7.35;82.96
21742;BME280;11033;47.490;11.116;2024-03-02T08:30:22;92046.84;;;7.43;82.65
21742;BME280;11033;47.490;11.116;2024-03-02T08:32:47;92036.72;;;7.58;82.47
21742;BME280;11033;47.490;11.116;2024-03-02T08:35:13;92042.50;;;7.53;81.83
21742;BME280;11033;47.490;11.116;2024-03-02T08:37:40;92036.16;;;7.66;81.87
21742;BME280;11033;47.490;11.116;2024-03-02T08:40:07;92041.63;;;7.75;82.07
21742;BME280;11033;47.490;11.116;2024-03-02T08:42:33;92043.38;;;7.82;81.95
21742;BME280;11033;47.490;11.116;2024-03-02T08:44:58;92037.09;;;7.92;81.87
21742;BME280;11033;47.490;11.116;2024-03-02T08:47:26;92043.28;;;8.02;82.38
21742;BME280;11033;47.490;11.116;2024-03-02T08:49:51;92042.22;;;8.15;81.10
21742;BME280;11033;47.490;11.116;2024-03-02T08:52:17;92046.66;;;8.18;80.61
21742;BME280;11033;47.490;11.116;2024-03-02T08:54:42;92042.56;;;8.34;80.36
21742;BME280;11033;47.490;11.116;2024-03-02T08:57:07;92038.50;;;8.45;80.02
21742;BME280;11033;47.490;11.116;2024-03-02T08:59:33;92045.84;;;8.54;78.23
21742;BME280;11033;47.490;11.116;2024-03-02T09:01:58;92050.44;;;8.66;78.36
21742;BME280;11033;47.490;11.116;2024-03-02T09:04:24;92039.25;;;8.74;78.21
21742;BME280;11033;47.490;11.116;2024-03-02T09:06:49;92038.56;;;8.87;77.70
21742;BME280;11033;47.490;11.116;2024-03-02T09:09:15;92036.19;;;9.05;77.30
21742;BME280;11033;47.490;11.116;2024-03-02T09:11:40;92037.63;;;9.22;77.80
21742;BME280;11033;47.490;11.116;2024-03-02T09:14:05;92033.72;;;9.39;77.94
21742;BME280;11033;47.490;11.116;2024-03-02T09:16:31;92026.97;;;9.51;76.61
21742;BME280;11033;47.490;11.116;2024-03-02T09:18:56;92024.94;;;9.67;75.90
21742;BME280;11033;47.490;11.116;2024-03-02T09:21:22;92022.53;;;9.86;74.85
21742;BME280;11033;47.490;11.116;2024-03-02T09:23:48;92022.72;;;10.04;76.59
21742;BME280;11033;47.490;11.116;2024-03-02T09:26:13;92021.97;;;10.16;73.99
21742;BME280;11033;47.490;11.116;2024-03-02T09:28:42;92011.00;;;10.39;74.53
21742;BME280;11033;47.490;11.116;2024-03-02T09:31:08;92013.09;;;10.57;74.15
21742;BME280;11033;47.490;11.116;2024-03-02T09:33:33;92014.41;;;10.74;72.73
21742;BME280;11033;47.490;11.116;2024-03-02T09:35:58;92011.28;;;10.88;72.60
21742;BME280;11033;47.490;11.116;2024-03-02T09:38:24;92014.63;;;11.01;71.01
21742;BME280;11033;47.490;11.116;2024-03-02T09:40:49;92005.66;;;11.08;70.38
21742;BME280;11033;47.490;11.116;2024-03-02T09:43:14;92010.16;;;11.20;70.81
21742;BME280;11033;47.490;11.116;2024-03-02T09:45:40;92002.56;;;11.31;69.55
21742;BME280;11033;47.490;11.116;2024-03-02T09:48:05;92003.19;;;11.35;69.66
21742;BME280;11033;47.490;11.116;2024-03-02T09:50:31;92001.34;;;11.54;69.39
21742;BME280;11033;47.490;11.116;2024-03-02T09:52:56;92003.38;;;11.72;69.24
21742;BME280;11033;47.490;11.116;2024-03-02T09:55:22;92001.34;;;11.85;69.86
21742;BME280;11033;47.490;11.116;2024-03-02T09:57:47;92003.47;;;11.68;67.13
21742;BME280;11033;47.490;11.116;2024-03-02T10:00:15;91996.38;;;11.96;68.86
21742;BME280;11033;47.490;11.116;2024-03-02T10:02:41;92003.81;;;12.10;68.04
21742;BME280;11033;47.490;11.116;2024-03-02T10:05:10;91999.47;;;12.03;66.64
21742;BME280;11033;47.490;11.116;2024-03-02T10:07:37;91998.66;;;12.25;67.32
21742;BME280;11033;47.490;11.116;2024-03-02T10:10:15;91992.63;;;12.42;68.14
21742;BME280;11033;47.490;11.116;2024-03-02T10:12:41;91986.44;;;12.54;66.86
21742;BME280;11033;47.490;11.116;2024-03-02T10:15:06;91989.84;;;12.73;66.53
21742;BME280;11033;47.490;11.116;2024-03-02T10:17:33;91987.03;;;12.86;66.62
21742;BME280;11033;47.490;11.116;2024-03-02T10:19:58;91983.75;;;13.09;67.12
21742;BME280;11033;47.490;11.116;2024-03-02T10:22:23;91977.84;;;13.23;65.20
21742;BME280;11033;47.490;11.116;2024-03-02T10:24:49;91980.91;;;13.49;64.52
21742;BME280;11033;47.490;11.116;2024-03-02T10:27:18;91972.69;;;13.62;63.42
21742;BME280;11033;47.490;11.116;2024-03-02T10:29:47;91973.84;;;13.79;62.86
21742;BME280;11033;47.490;11.116;2024-03-02T10:32:13;91968.34;;;14.06;62.77
21742;BME280;11033;47.490;11.116;2024-03-02T10:34:40;91969.41;;;14.32;59.49
21742;BME280;11033;47.490;11.116;2024-03-02T10:37:06;91968.47;;;14.44;57.63
21742;BME280;11033;47.490;11.116;2024-03-02T10:39:33;91957.25;;;14.55;55.22
21742;BME280;11033;47.490;11.116;2024-03-02T10:42:02;91953.41;;;14.56;54.71
21742;BME280;11033;47.490;11.116;2024-03-02T10:44:28;91952.72;;;14.85;51.70
21742;BME280;11033;47.490;11.116;2024-03-02T10:46:55;91947.69;;;15.45;56.52
21742;BME280;11033;47.490;11.116;2024-03-02T10:49:22;91951.22;;;15.66;55.77
21742;BME280;11033;47.490;11.116;2024-03-02T10:51:48;91938.38;;;15.85;55.58
21742;BME280;11033;47.490;11.116;2024-03-02T10:54:13;91945.09;;;15.95;53.30
21742;BME280;11033;47.490;11.116;2024-03-02T10:56:41;91942.84;;;16.08;48.21
21742;BME280;11033;47.490;11.116;2024-03-02T10:59:16;91940.88;;;16.64;52.57
21742;BME280;11033;47.490;11.116;2024-03-02T11:01:43;91934.84;;;17.15;52.36
21742;BME280;11033;47.490;11.116;2024-03-02T11:04:12;91929.94;;;17.39;49.70
21742;BME280;11033;47.490;11.116;2024-03-02T11:06:38;91921.91;;;18.07;52.84
21742;BME280;11033;47.490;11.116;2024-03-02T11:09:07;91928.31;;;17.73;48.88
21742;BME280;11033;47.490;11.116;2024-03-02T11:11:36;91917.34;;;18.13;49.49
21742;BME280;11033;47.490;11.116;2024-03-02T11:14:07;91916.31;;;18.53;48.41
21742;BME280;11033;47.490;11.116;2024-03-02T11:16:37;91921.16;;;19.14;49.34
21742;BME280;11033;47.490;11.116;2024-03-02T11:19:05;91913.88;;;19.48;45.07
21742;BME280;11033;47.490;11.116;2024-03-02T11:21:32;91909.47;;;19.72;44.55
21742;BME280;11033;47.490;11.116;2024-03-02T11:23:58;91902.84;;;20.01;45.19
21742;BME280;11033;47.490;11.116;2024-03-02T11:26:24;91906.66;;;21.08;44.39
21742;BME280;11033;47.490;11.116;2024-03-02T11:28:50;91903.78;;;20.95;44.77
21742;BME280;11033;47.490;11.116;2024-03-02T11:31:15;91896.78;;;22.16;43.40
21742;BME280;11033;47.490;11.116;2024-03-02T11:33:40;91890.91;;;21.58;41.52
21742;BME280;11033;47.490;11.116;2024-03-02T11:36:09;91896.66;;;22.28;42.35
21742;BME280;11033;47.490;11.116;2024-03-02T11:38:35;91882.56;;;22.59;38.17
21742;BME280;11033;47.490;11.116;2024-03-02T11:41:02;91892.22;;;23.67;42.82
21742;BME280;11033;47.490;11.116;2024-03-02T11:43:30;91880.00;;;23.92;37.17
21742;BME280;11033;47.490;11.116;2024-03-02T11:46:04;91880.59;;;24.30;39.96
21742;BME280;11033;47.490;11.116;2024-03-02T11:48:32;91869.25;;;24.18;36.30
21742;BME280;11033;47.490;11.116;2024-03-02T11:50:58;91874.63;;;24.97;36.69
21742;BME280;11033;47.490;11.116;2024-03-02T11:53:26;91869.72;;;24.95;35.99
21742;BME280;11033;47.490;11.116;2024-03-02T11:55:54;91858.41;;;25.18;34.70
21742;BME280;11033;47.490;11.116;2024-03-02T11:58:20;91863.97;;;25.87;35.56
21742;BME280;11033;47.490;11.116;2024-03-02T12:00:51;91856.38;;;26.71;36.32
21742;BME280;11033;47.490;11.116;2024-03-02T12:03:16;91853.97;;;25.28;32.63
21742;BME280;11033;47.490;11.116;2024-03-02T12:05:42;91842.16;;;25.80;32.75
21742;BME280;11033;47.490;11.116;2024-03-02T12:08:07;91833.09;;;26.62;34.38
21742;BME280;11033;47.490;11.116;2024-03-02T12:10:34;91826.38;;;26.56;34.04
21742;BME280;11033;47.490;11.116;2024-03-02T12:13:01;91825.91;;;27.23;32.87
21742;BME280;11033;47.490;11.116;2024-03-02T12:15:32;91822.16;;;26.19;31.61
21742;BME280;11033;47.490;11.116;2024-03-02T12:17:59;91816.66;;;26.75;33.13
21742;BME280;11033;47.490;11.116;2024-03-02T12:20:26;91813.47;;;27.66;33.20
21742;BME280;11033;47.490;11.116;2024-03-02T12:22:53;91816.72;;;27.49;30.17
21742;BME280;11033;47.490;11.116;2024-03-02T12:25:20;91811.66;;;27.99;29.89
21742;BME280;11033;47.490;11.116;2024-03-02T12:27:46;91808.56;;;27.95;31.06
21742;BME280;11033;47.490;11.116;2024-03-02T12:30:12;91801.56;;;28.62;28.89
21742;BME280;11033;47.490;11.116;2024-03-02T12:32:40;91787.47;;;27.57;30.00
21742;BME280;11033;47.490;11.116;2024-03-02T12:35:05;91792.56;;;27.99;30.27
21742;BME280;11033;47.490;11.116;2024-03-02T12:37:31;91786.53;;;28.38;29.22
21742;BME280;11033;47.490;11.116;2024-03-02T12:39:56;91783.00;;;28.68;29.47
21742;BME280;11033;47.490;11.116;2024-03-02T12:42:23;91784.22;;;28.12;29.67
21742;BME280;11033;47.490;11.116;2024-03-02T12:44:51;91774.81;;;28.68;28.57
21742;BME280;11033;47.490;11.116;2024-03-02T12:47:19;91769.84;;;28.19;29.48
21742;BME280;11033;47.490;11.116;2024-03-02T12:49:45;91772.94;;;28.15;27.77
21742;BME280;11033;47.490;11.116;2024-03-02T12:52:12;91771.84;;;27.96;28.72
21742;BME280;11033;47.490;11.116;2024-03-02T12:54:38;91764.91;;;28.25;29.26